Time;durP1;ratioP1;P1;durP2;ratioP2;P2;SDS_P1;SDS_P2;PMS_P1;PMS_P2;Temp;Humidity;BMP_temperature;BMP_pressure;BME280_temperature;BME280_humidity;BME280_pressure;Samples;Min_cycle;Max_cycle;Signal;HPM_P1;HPM_P2
2021/01/31 02:27:44;;;;;;;18.13;12.47;;;;;;;;;;4860902;29;20211;-94
2021/01/31 02:30:56;;;;;;;21.07;12.07;;;;;;;;;;4840134;29;20229;-93
2021/01/31 02:33:32;;;;;;;19.33;12.50;;;;;;;;;;4838519;29;20231;-94
2021/01/31 02:36:09;;;;;;;22.73;13.77;;;;;;;;;;4823631;29;20203;-94
2021/01/31 02:38:47;;;;;;;20.93;13.13;;;;;;;;;;4831886;29;20222;-95
2021/01/31 02:41:26;;;;;;;24.23;13.93;;;;;;;;;;4829002;29;20537;-93
2021/01/31 02:44:06;;;;;;;23.60;13.87;;;;;;;;;;4826216;29;20713;-94
2021/01/31 02:46:40;;;;;;;18.13;11.90;;;;;;;;;;4821723;29;20211;-93
2021/01/31 02:49:15;;;;;;;18.10;12.10;;;;;;;;;;4820677;29;20216;-94
2021/01/31 02:51:49;;;;;;;15.03;10.30;;;;;;;;;;4839451;29;20231;-94
2021/01/31 02:54:26;;;;;;;15.83;10.63;;;;;;;;;;4829899;29;20238;-93
2021/01/31 02:57:10;;;;;;;15.77;10.47;;;;;;;;;;4834721;29;20212;-95
2021/01/31 02:59:44;;;;;;;13.90;10.13;;;;;;;;;;4829038;29;20199;-95
2021/01/31 03:05:45;;;;;;;15.50;10.53;;;;;;;;;;4820718;29;20212;-94
2021/01/31 03:08:34;;;;;;;16.47;10.07;;;;;;;;;;4821320;29;20223;-93
2021/01/31 03:11:05;;;;;;;14.33;9.63;;;;;;;;;;4827352;29;20231;-93
2021/01/31 03:13:37;;;;;;;13.00;9.60;;;;;;;;;;4825166;29;20746;-93
2021/01/31 03:16:09;;;;;;;15.27;10.17;;;;;;;;;;4822466;29;20216;-94
2021/01/31 03:18:48;;;;;;;17.97;11.80;;;;;;;;;;4819010;29;20207;-94
2021/01/31 03:21:21;;;;;;;16.40;11.60;;;;;;;;;;4823381;29;20247;-94
2021/01/31 03:31:30;;;;;;;14.97;9.83;;;;;;;;;;4824931;29;20217;-93
2021/01/31 09:06:36;;;;;;;14.13;9.63;;;;;;;;;;4820407;29;20231;-95
2021/01/31 09:09:05;;;;;;;14.70;9.90;;;;;;;;;;4827069;29;20228;-94
2021/01/31 09:11:33;;;;;;;15.17;10.30;;;;;;;;;;4817083;29;20216;-95
2021/01/31 09:14:14;;;;;;;16.40;11.17;;;;;;;;;;4812383;29;20227;-94
2021/01/31 09:16:43;;;;;;;14.90;11.07;;;;;;;;;;4815326;29;20212;-94
2021/01/31 09:19:17;;;;;;;16.37;11.43;;;;;;;;;;4839664;24;20240;-95
2021/01/31 09:21:46;;;;;;;14.30;9.97;;;;;;;;;;4846776;29;20217;-92
2021/01/31 09:24:17;;;;;;;12.20;8.97;;;;;;;;;;4840243;29;20203;-94
2021/01/31 09:26:49;;;;;;;13.17;9.80;;;;;;;;;;4838125;29;20203;-93
2021/01/31 09:29:19;;;;;;;12.33;9.10;;;;;;;;;;4855242;29;20546;-94
2021/01/31 09:32:07;;;;;;;15.20;9.93;;;;;;;;;;4844011;29;20211;-95
2021/01/31 09:34:36;;;;;;;13.40;9.20;;;;;;;;;;4855283;29;20210;-95
2021/01/31 09:37:07;;;;;;;14.60;9.47;;;;;;;;;;4845050;29;20207;-93
2021/01/31 10:07:45;;;;;;;13.20;8.27;;;;;;;;;;4857993;29;20219;-94
2021/01/31 10:10:25;;;;;;;10.90;8.47;;;;;;;;;;4857418;29;20223;-95
2021/01/31 10:13:25;;;;;;;12.47;9.20;;;;;;;;;;4839206;29;20206;-94
2021/01/31 10:15:57;;;;;;;9.67;8.10;;;;;;;;;;4860067;29;20219;-94
2021/01/31 10:18:28;;;;;;;9.53;7.67;;;;;;;;;;4844137;29;20224;-95
2021/01/31 10:21:22;;;;;;;8.17;7.20;;;;;;;;;;4834731;29;20245;-94
2021/01/31 10:49:31;;;;;;;9.90;7.60;;;;;;;;;;4836302;29;20215;-93
2021/01/31 10:52:00;;;;;;;7.43;6.27;;;;;;;;;;4830864;29;20211;-92
2021/01/31 10:54:27;;;;;;;8.57;7.10;;;;;;;;;;4832067;29;20207;-95
2021/01/31 11:25:26;;;;;;;10.17;7.40;;;;;;;;;;4853661;29;20214;-94
2021/01/31 11:27:55;;;;;;;11.30;6.97;;;;;;;;;;4850266;29;20215;-94
2021/01/31 11:30:28;;;;;;;11.93;7.50;;;;;;;;;;4831190;29;20203;-94
2021/01/31 11:32:56;;;;;;;8.77;6.90;;;;;;;;;;4820960;29;20196;-93
2021/01/31 11:35:24;;;;;;;8.67;7.50;;;;;;;;;;4820461;29;20227;-93
2021/01/31 11:37:53;;;;;;;12.13;7.90;;;;;;;;;;4838285;29;20204;-95
2021/01/31 11:40:21;;;;;;;14.33;7.63;;;;;;;;;;4819612;29;20390;-94
2021/01/31 11:42:54;;;;;;;10.43;7.43;;;;;;;;;;4826067;29;20222;-93
2021/01/31 11:45:23;;;;;;;10.03;8.00;;;;;;;;;;4836513;29;20214;-94
2021/01/31 11:47:51;;;;;;;11.07;8.40;;;;;;;;;;4843906;29;20200;-94
2021/01/31 11:50:20;;;;;;;12.90;7.77;;;;;;;;;;4820978;29;20215;-94
2021/01/31 11:52:48;;;;;;;11.83;7.57;;;;;;;;;;4823693;29;20208;-93
2021/01/31 11:55:16;;;;;;;10.07;6.67;;;;;;;;;;4819074;29;20219;-92
2021/01/31 11:57:44;;;;;;;8.83;6.83;;;;;;;;;;4838826;29;20191;-93
2021/01/31 12:00:16;;;;;;;9.60;6.60;;;;;;;;;;4820335;29;20230;-94
2021/01/31 12:02:44;;;;;;;10.23;6.47;;;;;;;;;;4835671;29;20215;-92
2021/01/31 12:05:15;;;;;;;7.80;5.97;;;;;;;;;;4835000;29;20206;-93
2021/01/31 12:07:43;;;;;;;9.67;6.50;;;;;;;;;;4816304;29;20465;-94
2021/01/31 12:10:13;;;;;;;8.67;5.90;;;;;;;;;;4814731;29;20224;-93
2021/01/31 12:12:41;;;;;;;7.87;6.40;;;;;;;;;;4819990;29;20217;-93
2021/01/31 12:15:12;;;;;;;8.67;6.97;;;;;;;;;;4832319;29;20325;-92
2021/01/31 12:17:41;;;;;;;8.90;6.57;;;;;;;;;;4833984;29;20193;-93
2021/01/31 12:20:12;;;;;;;8.33;6.30;;;;;;;;;;4839336;29;20212;-95
2021/01/31 12:22:40;;;;;;;8.43;5.87;;;;;;;;;;4833954;29;20214;-94
2021/01/31 12:25:13;;;;;;;11.50;7.00;;;;;;;;;;4839411;29;20208;-93
2021/01/31 12:49:38;;;;;;;10.23;5.70;;;;;;;;;;4826894;29;20231;-94
2021/01/31 12:52:05;;;;;;;7.93;6.30;;;;;;;;;;4809654;29;20206;-94
2021/01/31 12:54:39;;;;;;;10.87;7.20;;;;;;;;;;4812415;29;20223;-94
2021/01/31 12:57:07;;;;;;;9.20;6.40;;;;;;;;;;4828913;29;20200;-93
2021/01/31 12:59:35;;;;;;;7.10;5.33;;;;;;;;;;4824301;29;20234;-94
2021/01/31 13:02:02;;;;;;;7.50;5.73;;;;;;;;;;4822808;29;20971;-95
2021/01/31 13:04:30;;;;;;;7.47;5.90;;;;;;;;;;4818442;29;20210;-94
2021/01/31 13:06:58;;;;;;;7.67;5.47;;;;;;;;;;4801824;29;20214;-94
2021/01/31 13:09:30;;;;;;;6.70;5.60;;;;;;;;;;4818654;29;20238;-93
2021/01/31 13:11:58;;;;;;;8.07;5.80;;;;;;;;;;4804875;29;20197;-93
2021/01/31 13:14:25;;;;;;;7.60;5.60;;;;;;;;;;4816839;29;20203;-95
2021/01/31 13:16:53;;;;;;;7.97;5.60;;;;;;;;;;4834523;29;20224;-94
2021/01/31 13:19:21;;;;;;;7.07;5.90;;;;;;;;;;4806084;29;20212;-93
2021/01/31 13:21:49;;;;;;;6.90;4.80;;;;;;;;;;4805977;29;20215;-93
2021/01/31 13:24:34;;;;;;;6.57;5.30;;;;;;;;;;4803108;29;20207;-95
2021/01/31 13:27:15;;;;;;;5.87;4.87;;;;;;;;;;4820270;29;20204;-94
2021/01/31 13:29:55;;;;;;;6.83;4.93;;;;;;;;;;4826719;29;20216;-94
2021/01/31 13:32:24;;;;;;;7.27;5.60;;;;;;;;;;4840292;29;20194;-94
2021/01/31 13:34:51;;;;;;;7.13;4.40;;;;;;;;;;4807951;29;20188;-95
2021/01/31 13:37:19;;;;;;;6.00;4.63;;;;;;;;;;4805922;29;20235;-93
2021/01/31 13:39:47;;;;;;;10.13;6.17;;;;;;;;;;4810661;29;20210;-95
2021/01/31 13:42:15;;;;;;;6.90;5.40;;;;;;;;;;4820707;29;20204;-96
2021/01/31 13:44:42;;;;;;;6.63;4.90;;;;;;;;;;4821721;29;20185;-93
2021/01/31 13:47:10;;;;;;;6.03;5.13;;;;;;;;;;4818036;29;20200;-92
2021/01/31 13:49:41;;;;;;;6.83;5.33;;;;;;;;;;4821280;29;20307;-94
2021/01/31 13:52:14;;;;;;;11.30;8.40;;;;;;;;;;4818945;29;20200;-95
2021/01/31 13:54:54;;;;;;;5.23;4.17;;;;;;;;;;4830191;29;20247;-95
2021/01/31 13:57:38;;;;;;;7.00;4.77;;;;;;;;;;4816382;29;20230;-94
2021/01/31 14:00:33;;;;;;;7.30;4.97;;;;;;;;;;4824385;29;20236;-95
2021/01/31 14:03:01;;;;;;;6.10;4.70;;;;;;;;;;4841109;29;20208;-96
2021/01/31 14:05:29;;;;;;;5.93;5.33;;;;;;;;;;4826507;29;20223;-95
2021/01/31 14:07:58;;;;;;;7.20;5.43;;;;;;;;;;4842412;29;20223;-93
2021/01/31 14:10:27;;;;;;;6.13;4.50;;;;;;;;;;4825631;29;20217;-93
2021/01/31 14:13:03;;;;;;;8.17;5.13;;;;;;;;;;4827495;29;20204;-94
2021/01/31 14:15:30;;;;;;;8.07;5.63;;;;;;;;;;4825131;29;20212;-93
2021/01/31 14:17:58;;;;;;;7.93;5.67;;;;;;;;;;4838209;29;20188;-93
2021/01/31 14:20:26;;;;;;;6.87;5.10;;;;;;;;;;4823951;29;20216;-94
2021/01/31 14:22:55;;;;;;;6.53;5.50;;;;;;;;;;4824827;29;20210;-94
2021/01/31 14:25:26;;;;;;;5.87;5.00;;;;;;;;;;4811435;29;20200;-96
2021/01/31 14:27:54;;;;;;;6.63;5.00;;;;;;;;;;4826884;29;20195;-94
2021/01/31 14:30:24;;;;;;;10.37;5.77;;;;;;;;;;4825730;29;20214;-95
2021/01/31 14:32:54;;;;;;;7.50;5.20;;;;;;;;;;4836324;29;20220;-92
2021/01/31 14:35:26;;;;;;;7.53;5.07;;;;;;;;;;4839602;29;20204;-96
2021/01/31 14:37:58;;;;;;;5.10;4.33;;;;;;;;;;4840650;29;20200;-93
2021/01/31 14:40:27;;;;;;;9.57;4.67;;;;;;;;;;4812817;29;20211;-94
2021/01/31 14:43:09;;;;;;;6.30;4.30;;;;;;;;;;4821560;29;20219;-94
2021/01/31 14:45:41;;;;;;;5.40;4.37;;;;;;;;;;4839018;29;20204;-95
2021/01/31 14:48:30;;;;;;;7.73;4.60;;;;;;;;;;4836878;29;20204;-94
2021/01/31 14:51:08;;;;;;;6.03;4.33;;;;;;;;;;4808557;29;20205;-94
2021/01/31 14:53:42;;;;;;;6.83;4.27;;;;;;;;;;4839248;29;20222;-94
2021/01/31 14:56:24;;;;;;;4.93;4.10;;;;;;;;;;4821815;29;20211;-92
2021/01/31 14:59:16;;;;;;;6.30;4.43;;;;;;;;;;4813722;29;20220;-94
2021/01/31 15:01:49;;;;;;;5.67;4.37;;;;;;;;;;4824704;29;20233;-94
2021/01/31 15:04:17;;;;;;;6.77;4.87;;;;;;;;;;4805080;29;20215;-92
2021/01/31 15:06:44;;;;;;;7.47;4.97;;;;;;;;;;4815898;29;20209;-92
2021/01/31 15:09:12;;;;;;;6.20;4.40;;;;;;;;;;4815378;29;20732;-93
2021/01/31 15:11:41;;;;;;;5.73;4.10;;;;;;;;;;4836001;29;20215;-94
2021/01/31 15:14:10;;;;;;;5.73;4.23;;;;;;;;;;4812920;29;20208;-93
2021/01/31 15:16:38;;;;;;;7.73;4.47;;;;;;;;;;4820077;29;20226;-93
2021/01/31 15:19:07;;;;;;;7.00;4.10;;;;;;;;;;4827365;29;20611;-94
2021/01/31 20:38:33;;;;;;;16.13;10.77;;;;;;;;;;4855787;29;20307;-93
2021/01/31 20:41:01;;;;;;;18.33;11.90;;;;;;;;;;4853954;29;20213;-94
2021/01/31 20:43:29;;;;;;;19.93;12.03;;;;;;;;;;4838787;29;20294;-94
2021/01/31 20:45:57;;;;;;;18.67;12.63;;;;;;;;;;4851960;29;20192;-93
2021/01/31 20:48:25;;;;;;;18.47;13.23;;;;;;;;;;4821711;29;20209;-95
2021/01/31 20:50:53;;;;;;;18.00;12.37;;;;;;;;;;4847998;29;20211;-93
2021/01/31 20:53:22;;;;;;;19.50;12.70;;;;;;;;;;4822689;29;20226;-94
2021/01/31 20:55:51;;;;;;;19.40;13.03;;;;;;;;;;4824720;29;20210;-94
2021/01/31 20:58:19;;;;;;;19.10;13.73;;;;;;;;;;4820257;29;20222;-95
2021/01/31 21:00:47;;;;;;;19.03;13.67;;;;;;;;;;4828186;29;20211;-94
2021/01/31 21:03:16;;;;;;;16.97;13.30;;;;;;;;;;4825215;29;21304;-93
2021/01/31 21:05:47;;;;;;;20.20;14.60;;;;;;;;;;4826441;29;20205;-94
2021/01/31 21:08:16;;;;;;;20.57;14.63;;;;;;;;;;4827408;29;20222;-95
2021/01/31 21:10:45;;;;;;;21.40;15.57;;;;;;;;;;4825356;29;20214;-93
2021/01/31 21:13:13;;;;;;;24.10;15.50;;;;;;;;;;4827702;29;20223;-95
2021/01/31 21:15:41;;;;;;;23.60;16.33;;;;;;;;;;4824105;29;20192;-93
2021/01/31 21:18:10;;;;;;;23.87;16.77;;;;;;;;;;4819252;29;20211;-94
2021/01/31 21:20:39;;;;;;;21.53;16.50;;;;;;;;;;4837614;29;20191;-94
2021/01/31 21:23:07;;;;;;;28.10;18.40;;;;;;;;;;4823072;29;20212;-94
2021/01/31 21:25:35;;;;;;;29.60;18.77;;;;;;;;;;4819956;29;20210;-95
2021/01/31 21:28:04;;;;;;;31.17;19.43;;;;;;;;;;4839651;29;20202;-93
2021/01/31 21:30:34;;;;;;;27.37;17.70;;;;;;;;;;4820622;29;20195;-94
2021/01/31 21:33:04;;;;;;;26.33;19.13;;;;;;;;;;4822294;29;20219;-93
2021/01/31 21:35:32;;;;;;;25.03;18.13;;;;;;;;;;4824306;29;20194;-93
2021/01/31 21:38:01;;;;;;;25.80;17.57;;;;;;;;;;4827715;29;20216;-94
2021/01/31 21:40:31;;;;;;;26.60;18.63;;;;;;;;;;4822026;29;20210;-95
2021/01/31 21:43:25;;;;;;;24.80;18.43;;;;;;;;;;4824254;29;20243;-93
2021/01/31 21:45:54;;;;;;;23.43;17.27;;;;;;;;;;4833095;29;20206;-94
2021/01/31 21:48:22;;;;;;;25.10;16.90;;;;;;;;;;4827945;29;20207;-94
2021/01/31 21:50:50;;;;;;;24.40;17.43;;;;;;;;;;4844983;29;20192;-94
2021/01/31 21:53:20;;;;;;;24.57;16.80;;;;;;;;;;4829749;29;20209;-92
2021/01/31 21:55:47;;;;;;;25.67;17.03;;;;;;;;;;4829355;29;20212;-93
2021/01/31 21:58:15;;;;;;;23.73;17.37;;;;;;;;;;4844060;29;20200;-94
2021/01/31 22:00:43;;;;;;;23.80;16.90;;;;;;;;;;4831909;29;20208;-94
2021/01/31 22:03:12;;;;;;;21.97;15.93;;;;;;;;;;4831962;29;20203;-93
2021/01/31 22:05:43;;;;;;;22.33;15.73;;;;;;;;;;4825379;29;20318;-94
2021/01/31 22:08:11;;;;;;;19.60;14.70;;;;;;;;;;4826364;29;20204;-94
2021/01/31 22:10:38;;;;;;;20.97;15.60;;;;;;;;;;4844194;29;20198;-94
2021/01/31 22:13:06;;;;;;;20.73;15.10;;;;;;;;;;4824407;29;20230;-93
2021/01/31 22:15:34;;;;;;;20.87;15.17;;;;;;;;;;4826541;29;20212;-96
2021/01/31 22:18:04;;;;;;;21.40;13.70;;;;;;;;;;4822959;29;20223;-93
2021/01/31 22:20:33;;;;;;;20.87;13.57;;;;;;;;;;4837172;29;20200;-94
2021/01/31 22:23:02;;;;;;;19.77;12.90;;;;;;;;;;4834559;29;20237;-94
2021/01/31 22:25:30;;;;;;;16.17;11.57;;;;;;;;;;4835814;29;20214;-94
2021/01/31 22:27:58;;;;;;;17.30;12.07;;;;;;;;;;4840816;29;20208;-94
2021/01/31 22:30:26;;;;;;;14.30;10.70;;;;;;;;;;4841270;29;20202;-94
2021/01/31 22:32:55;;;;;;;15.17;10.60;;;;;;;;;;4825911;29;20208;-93
2021/01/31 22:35:25;;;;;;;17.10;12.20;;;;;;;;;;4840968;29;20199;-93
2021/01/31 22:37:54;;;;;;;19.83;12.87;;;;;;;;;;4838378;29;20222;-95
2021/01/31 22:40:22;;;;;;;17.93;12.70;;;;;;;;;;4841283;29;20188;-94
2021/01/31 22:42:50;;;;;;;17.60;12.33;;;;;;;;;;4828334;29;20212;-94
2021/01/31 22:45:21;;;;;;;20.80;14.20;;;;;;;;;;4837392;29;20214;-93
2021/01/31 22:47:50;;;;;;;20.27;14.23;;;;;;;;;;4842598;29;20211;-94
2021/01/31 22:50:18;;;;;;;22.67;15.27;;;;;;;;;;4820925;29;20198;-95
2021/01/31 22:52:45;;;;;;;24.27;15.67;;;;;;;;;;4839286;29;20212;-94
2021/01/31 22:55:16;;;;;;;21.93;15.47;;;;;;;;;;4823226;29;20210;-95
2021/01/31 22:57:45;;;;;;;22.30;14.60;;;;;;;;;;4839607;29;20210;-94
2021/01/31 23:00:18;;;;;;;26.60;16.43;;;;;;;;;;4823853;29;20202;-92
2021/01/31 23:02:46;;;;;;;23.53;14.73;;;;;;;;;;4817880;29;20204;-93
2021/01/31 23:05:17;;;;;;;23.87;14.43;;;;;;;;;;4838398;29;20198;-93
2021/01/31 23:07:44;;;;;;;23.47;15.03;;;;;;;;;;4825745;29;20203;-93
2021/01/31 23:10:13;;;;;;;23.97;14.80;;;;;;;;;;4839649;29;20213;-93
2021/01/31 23:12:41;;;;;;;23.20;14.47;;;;;;;;;;4824098;29;20226;-93
2021/01/31 23:15:11;;;;;;;25.23;15.57;;;;;;;;;;4829862;29;20202;-93
2021/01/31 23:17:39;;;;;;;24.67;15.73;;;;;;;;;;4842480;29;20194;-93
2021/01/31 23:20:08;;;;;;;24.83;15.27;;;;;;;;;;4826054;29;20216;-94
2021/01/31 23:22:36;;;;;;;25.83;14.67;;;;;;;;;;4834592;29;20224;-94
2021/01/31 23:25:05;;;;;;;20.37;13.47;;;;;;;;;;4821658;29;20210;-94
2021/01/31 23:27:35;;;;;;;19.93;13.90;;;;;;;;;;4829757;29;20289;-95
2021/01/31 23:30:05;;;;;;;20.40;13.13;;;;;;;;;;4824774;29;20195;-93
2021/01/31 23:32:33;;;;;;;16.80;11.53;;;;;;;;;;4829695;29;20203;-94
2021/01/31 23:35:01;;;;;;;19.97;13.23;;;;;;;;;;4824619;29;20193;-92
2021/01/31 23:37:28;;;;;;;17.60;12.40;;;;;;;;;;4824772;29;20298;-93
2021/01/31 23:39:56;;;;;;;20.43;13.63;;;;;;;;;;4841358;29;20211;-92
2021/01/31 23:42:24;;;;;;;19.13;12.93;;;;;;;;;;4826863;29;20222;-93
2021/01/31 23:44:52;;;;;;;19.90;12.67;;;;;;;;;;4833446;29;20200;-94
2021/01/31 23:47:20;;;;;;;17.17;10.17;;;;;;;;;;4819226;29;20206;-93
2021/01/31 23:49:48;;;;;;;17.33;10.17;;;;;;;;;;4816439;29;20207;-94
2021/01/31 23:52:16;;;;;;;13.70;9.03;;;;;;;;;;4820430;29;20220;-94
2021/01/31 23:54:44;;;;;;;12.53;8.07;;;;;;;;;;4832175;29;20198;-94
2021/01/31 23:57:12;;;;;;;12.53;8.23;;;;;;;;;;4838558;29;20206;-95
2021/01/31 23:59:39;;;;;;;12.90;8.43;;;;;;;;;;4823221;29;20219;-94
